createdAt,value
2019-01-21T00:01:39.914Z,101060.06
2019-01-21T00:04:09.483Z,101063.48
2019-01-21T00:06:38.902Z,101059.21
2019-01-21T00:09:09.427Z,101062.74
2019-01-21T00:11:38.832Z,101061.03
2019-01-21T00:14:08.273Z,101061.05
2019-01-21T00:16:37.774Z,101061.05
2019-01-21T00:19:07.249Z,101059.38
2019-01-21T00:21:36.953Z,101060.67
2019-01-21T00:24:06.538Z,101065.41
2019-01-21T00:26:35.942Z,101064.53
2019-01-21T00:29:05.530Z,101064.52
2019-01-21T00:31:34.987Z,101061.53
2019-01-21T00:34:04.643Z,101058.53
2019-01-21T00:36:34.125Z,101061.54
2019-01-21T00:39:04.866Z,101063.68
2019-01-21T00:41:34.706Z,101063.70
2019-01-21T00:44:04.214Z,101063.30
2019-01-21T00:46:33.688Z,101056.86
2019-01-21T00:49:03.221Z,101056.85
2019-01-21T00:51:32.668Z,101056.85
2019-01-21T00:54:02.398Z,101059.44
2019-01-21T00:56:32.235Z,101062.01
2019-01-21T00:59:01.760Z,101062.01
2019-01-21T01:01:31.205Z,101055.61
2019-01-21T01:04:00.708Z,101061.19
2019-01-21T01:06:30.196Z,101063.76
2019-01-21T01:08:59.662Z,101068.92
2019-01-21T01:11:29.162Z,101068.92
2019-01-21T01:13:58.891Z,101072.33
2019-01-21T01:16:28.413Z,101075.75
2019-01-21T01:18:57.781Z,101070.20
2019-01-21T01:21:27.293Z,101070.20
2019-01-21T01:23:56.796Z,101074.47
2019-01-21T01:26:26.544Z,101068.91
2019-01-21T01:28:55.994Z,101077.92
2019-01-21T01:31:25.577Z,101083.45
2019-01-21T01:33:55.059Z,101077.05
2019-01-21T01:36:24.507Z,101086.06
2019-01-21T01:38:53.994Z,101084.34
2019-01-21T01:41:23.389Z,101084.34
2019-01-21T01:43:52.852Z,101074.91
2019-01-21T01:46:22.635Z,101074.05
2019-01-21T01:48:52.503Z,101082.64
2019-01-21T01:51:21.881Z,101074.06
2019-01-21T01:53:51.600Z,101083.08
2019-01-21T01:56:21.007Z,101082.64
2019-01-21T01:58:50.846Z,101082.64
2019-01-21T02:01:20.270Z,101080.92
2019-01-21T02:03:49.730Z,101086.07
2019-01-21T02:06:19.424Z,101085.19
2019-01-21T02:08:49.198Z,101092.89
2019-01-21T02:11:18.699Z,101083.04
2019-01-21T02:13:48.169Z,101079.19
2019-01-21T02:16:17.689Z,101087.73
2019-01-21T02:18:47.425Z,101079.17
2019-01-21T02:21:17.355Z,101084.73
2019-01-21T02:23:49.524Z,101084.29
2019-01-21T02:26:22.298Z,101086.41
2019-01-21T02:29:08.748Z,101081.66
2019-01-21T02:32:10.734Z,101077.34
2019-01-21T02:34:47.138Z,101072.20
2019-01-21T02:37:53.532Z,101081.23
2019-01-21T02:40:43.173Z,101078.21
2019-01-21T02:43:34.930Z,101067.03
2019-01-21T02:46:43.647Z,101073.03
2019-01-21T02:49:46.878Z,101066.61
2019-01-21T02:52:52.859Z,101073.81
2019-01-21T02:55:56.444Z,101068.63
2019-01-21T02:59:06.355Z,101073.76
2019-01-21T03:02:16.808Z,101071.14
2019-01-21T03:05:14.338Z,101072.41
2019-01-21T03:08:23.180Z,101074.98
2019-01-21T03:11:06.276Z,101068.98
2019-01-21T03:14:15.095Z,101071.96
2019-01-21T03:17:23.129Z,101074.06
2019-01-21T03:20:12.840Z,101074.03
2019-01-21T03:23:12.418Z,101065.86
2019-01-21T03:26:09.038Z,101065.86
2019-01-21T03:29:24.363Z,101063.69
2019-01-21T03:32:47.180Z,101068.86
2019-01-21T03:35:38.608Z,101063.31
2019-01-21T03:38:44.453Z,101065.06
2019-01-21T03:41:36.069Z,101065.05
2019-01-21T03:44:44.768Z,101074.37
2019-01-21T03:47:52.297Z,101071.83
2019-01-21T03:50:53.066Z,101074.86
2019-01-21T03:53:50.448Z,101074.50
2019-01-21T03:56:32.992Z,101074.03
2019-01-21T03:59:36.321Z,101071.80
2019-01-21T04:02:59.524Z,101071.79
2019-01-21T04:06:22.207Z,101075.16
2019-01-21T04:09:30.043Z,101078.14
2019-01-21T04:12:34.813Z,101072.52
2019-01-21T04:15:39.402Z,101073.40
2019-01-21T04:18:33.827Z,101074.23
2019-01-21T04:22:05.624Z,101075.92
2019-01-21T04:24:55.293Z,101082.72
2019-01-21T04:28:11.635Z,101085.77
2019-01-21T04:31:31.643Z,101090.50
2019-01-21T04:34:37.686Z,101089.30
2019-01-21T04:37:43.016Z,101085.05
2019-01-21T04:40:38.228Z,101083.38
2019-01-21T04:43:41.927Z,101080.45
2019-01-21T04:47:12.024Z,101077.49
2019-01-21T04:50:20.897Z,101071.95
2019-01-21T04:53:34.315Z,101070.73
2019-01-21T04:56:36.955Z,101076.33
2019-01-21T04:59:34.967Z,101072.89
2019-01-21T05:02:27.078Z,101076.33
2019-01-21T05:05:41.470Z,101072.07
2019-01-21T05:08:50.363Z,101070.83
2019-01-21T05:11:51.680Z,101078.95
2019-01-21T05:14:31.596Z,101083.69
2019-01-21T05:17:50.005Z,101079.00
2019-01-21T05:20:58.651Z,101082.44
2019-01-21T05:24:00.840Z,101079.46
2019-01-21T05:26:52.718Z,101076.48
2019-01-21T05:30:01.775Z,101082.97
2019-01-21T05:33:12.031Z,101079.98
2019-01-21T05:36:31.918Z,101085.57
2019-01-21T05:39:32.861Z,101085.57
2019-01-21T05:42:43.435Z,101087.28
2019-01-21T05:45:49.709Z,101087.28
2019-01-21T05:48:55.719Z,101081.29
2019-01-21T05:52:21.351Z,101081.29
2019-01-21T05:55:32.201Z,101085.17
2019-01-21T05:58:51.812Z,101069.34
2019-01-21T06:02:15.534Z,101086.48
2019-01-21T06:05:03.748Z,101083.06
2019-01-21T06:08:18.370Z,101083.06
2019-01-21T06:11:25.277Z,101092.05
2019-01-21T06:14:27.577Z,101095.90
2019-01-21T06:17:18.440Z,101095.90
2019-01-21T06:20:06.888Z,101092.47
2019-01-21T06:22:52.924Z,101096.31
2019-01-21T06:25:48.719Z,101086.01
2019-01-21T06:28:30.487Z,101082.59
2019-01-21T06:31:17.828Z,101082.16
2019-01-21T06:34:17.299Z,101083.02
2019-01-21T06:37:05.497Z,101091.61
2019-01-21T06:40:07.157Z,101084.31
2019-01-21T06:43:02.361Z,101092.91
2019-01-21T06:46:17.607Z,101094.61
2019-01-21T06:49:22.215Z,101094.60
2019-01-21T06:52:38.185Z,101097.60
2019-01-21T06:55:28.649Z,101101.04
2019-01-21T06:58:12.204Z,101105.75
2019-01-21T07:01:28.773Z,101103.59
2019-01-21T07:04:14.828Z,101100.17
2019-01-21T07:07:18.332Z,101101.88
2019-01-21T07:10:07.789Z,101105.31
2019-01-21T07:13:08.407Z,101106.56
2019-01-21T07:15:58.993Z,101105.70
2019-01-21T07:18:52.963Z,101105.70
2019-01-21T07:21:41.412Z,101100.95
2019-01-21T07:24:47.177Z,101104.84
2019-01-21T07:27:28.545Z,101106.55
2019-01-21T07:30:58.309Z,101106.98
2019-01-21T07:33:47.224Z,101101.83
2019-01-21T07:36:40.581Z,101103.11
2019-01-21T07:39:53.000Z,101105.72
2019-01-21T07:42:58.019Z,101104.85
2019-01-21T07:45:48.661Z,101106.56
2019-01-21T07:49:06.526Z,101109.55
2019-01-21T07:52:18.372Z,101103.11
2019-01-21T07:55:39.912Z,101112.98
2019-01-21T07:58:46.913Z,101109.13
2019-01-21T08:01:36.119Z,101114.28
2019-01-21T08:04:45.895Z,101115.17
2019-01-21T08:07:50.491Z,101113.02
2019-01-21T08:11:00.118Z,101116.88
2019-01-21T08:13:58.193Z,101118.53
2019-01-21T08:16:57.673Z,101114.23
2019-01-21T08:19:46.029Z,101128.03
2019-01-21T08:22:50.918Z,101132.32
2019-01-21T08:26:05.233Z,101124.55
2019-01-21T08:29:06.615Z,101127.97
2019-01-21T08:32:12.867Z,101117.69
2019-01-21T08:35:09.404Z,101119.42
2019-01-21T08:38:20.616Z,101122.81
2019-01-21T08:41:34.227Z,101136.10
2019-01-21T08:44:37.717Z,101137.38
2019-01-21T08:47:43.754Z,101138.20
2019-01-21T08:50:49.603Z,101132.61
2019-01-21T08:53:35.314Z,101132.16
2019-01-21T08:56:36.664Z,101135.53
2019-01-21T09:00:03.136Z,101138.11
2019-01-21T09:03:06.031Z,101138.38
2019-01-21T09:06:13.154Z,101140.53
2019-01-21T09:09:21.527Z,101140.61
2019-01-21T09:12:18.597Z,101143.84
2019-01-21T09:15:41.018Z,101139.45
2019-01-21T09:18:52.640Z,101147.77
2019-01-21T09:21:56.510Z,101141.20
2019-01-21T09:25:02.676Z,101142.84
2019-01-21T09:28:14.792Z,101147.05
2019-01-21T09:30:58.600Z,101147.58
2019-01-21T09:33:48.273Z,101142.28
2019-01-21T09:36:42.789Z,101147.36
2019-01-21T09:39:35.090Z,101147.34
2019-01-21T09:42:51.166Z,101147.10
2019-01-21T09:45:44.755Z,101135.98
2019-01-21T09:48:12.694Z,101134.09
2019-01-21T09:50:44.063Z,101136.31
2019-01-21T09:53:14.087Z,101136.78
2019-01-21T09:55:48.745Z,101145.77
2019-01-21T09:58:19.799Z,101147.07
2019-01-21T10:00:50.895Z,101156.20
2019-01-21T10:03:23.931Z,101157.38
2019-01-21T10:06:02.633Z,101156.62
2019-01-21T10:09:13.354Z,101154.08
2019-01-21T10:12:10.909Z,101150.77
2019-01-21T10:14:59.814Z,101149.83
2019-01-21T10:18:25.029Z,101138.72
2019-01-21T10:21:30.916Z,101142.84
2019-01-21T10:24:51.763Z,101139.45
2019-01-21T10:27:47.772Z,101136.83
2019-01-21T10:30:43.048Z,101121.61
2019-01-21T10:33:49.300Z,101114.94
2019-01-21T10:37:05.535Z,101112.25
2019-01-21T10:40:12.861Z,101106.05
2019-01-21T10:43:01.735Z,101103.24
2019-01-21T10:45:57.542Z,101104.81
2019-01-21T10:49:10.843Z,101103.95
2019-01-21T10:52:10.327Z,101098.70
2019-01-21T10:54:56.113Z,101093.30
2019-01-21T10:57:41.976Z,101102.28
2019-01-21T11:00:51.430Z,101090.86
2019-01-21T11:03:37.919Z,101089.21
2019-01-21T11:06:57.110Z,101084.23
2019-01-21T11:09:38.148Z,101078.03
2019-01-21T11:12:39.548Z,101072.94
2019-01-21T11:15:41.344Z,101064.11
2019-01-21T11:18:30.691Z,101064.17
2019-01-21T11:21:10.828Z,101060.33
2019-01-21T11:24:24.273Z,101053.53
2019-01-21T11:27:40.358Z,101053.08
2019-01-21T11:30:52.733Z,101044.00
2019-01-21T11:33:51.349Z,101035.59
2019-01-21T11:37:01.310Z,101036.92
2019-01-21T11:39:52.525Z,101028.93
2019-01-21T11:42:37.760Z,101028.25
2019-01-21T11:45:31.771Z,101020.31
2019-01-21T11:48:23.724Z,101018.76
2019-01-21T11:51:16.766Z,101012.27
2019-01-21T11:54:01.924Z,101019.97
2019-01-21T11:56:59.037Z,101010.96
2019-01-21T12:00:42.550Z,101000.62
2019-01-21T12:03:48.600Z,100991.64
2019-01-21T12:07:02.861Z,100996.89
2019-01-21T12:10:06.342Z,100995.12
2019-01-21T12:12:44.630Z,100987.53
2019-01-21T12:15:41.080Z,100984.73
2019-01-21T12:19:06.223Z,100983.68
2019-01-21T12:22:09.644Z,100982.34
2019-01-21T12:24:47.597Z,100963.66
2019-01-21T12:27:46.743Z,100963.58
2019-01-21T12:30:54.568Z,100958.49
2019-01-21T12:33:56.943Z,100940.84
2019-01-21T12:37:00.015Z,100940.84
2019-01-21T12:40:10.607Z,100938.80
2019-01-21T12:43:29.131Z,100933.80
2019-01-21T12:46:19.868Z,100933.44
2019-01-21T12:49:25.013Z,100929.88
2019-01-21T12:52:12.937Z,100928.02
2019-01-21T12:55:19.873Z,100923.30
2019-01-21T12:58:45.236Z,100921.47
2019-01-21T13:01:40.091Z,100910.78
2019-01-21T13:04:52.183Z,100906.35
2019-01-21T13:08:01.228Z,100899.84
2019-01-21T13:10:50.133Z,100905.03
2019-01-21T13:13:57.204Z,100900.52
2019-01-21T13:16:57.044Z,100902.56
2019-01-21T13:19:58.504Z,100900.57
2019-01-21T13:23:04.772Z,100902.30
2019-01-21T13:26:14.019Z,100892.32
2019-01-21T13:29:10.950Z,100891.20
2019-01-21T13:32:00.447Z,100875.31
2019-01-21T13:34:59.771Z,100874.61
2019-01-21T13:38:11.832Z,100871.89
2019-01-21T13:41:40.186Z,100866.88
2019-01-21T13:44:41.540Z,100856.87
2019-01-21T13:47:42.073Z,100848.36
2019-01-21T13:50:27.182Z,100858.36
2019-01-21T13:53:29.526Z,100859.27
2019-01-21T13:56:32.752Z,100844.06
2019-01-21T13:59:38.779Z,100842.31
2019-01-21T14:02:23.766Z,100841.34
2019-01-21T14:05:30.872Z,100841.84
2019-01-21T14:08:21.963Z,100851.31
2019-01-21T14:11:16.971Z,100846.86
2019-01-21T14:14:11.865Z,100845.41
2019-01-21T14:17:25.619Z,100839.78
2019-01-21T14:20:54.219Z,100834.61
2019-01-21T14:24:00.281Z,100845.25
2019-01-21T14:26:53.758Z,100843.78
2019-01-21T14:30:19.669Z,100829.84
2019-01-21T14:33:20.922Z,100843.05
2019-01-21T14:36:15.365Z,100844.81
2019-01-21T14:39:17.952Z,100838.45
2019-01-21T14:42:37.268Z,100838.09
2019-01-21T14:45:53.613Z,100832.55
2019-01-21T14:48:55.208Z,100840.19
2019-01-21T14:52:01.626Z,100833.70
2019-01-21T14:55:00.183Z,100829.31
2019-01-21T14:58:18.601Z,100835.97
2019-01-21T15:01:22.297Z,100841.91
2019-01-21T15:04:50.585Z,100838.52
2019-01-21T15:08:02.342Z,100837.00
2019-01-21T15:11:13.573Z,100838.42
2019-01-21T15:13:56.566Z,100833.58
2019-01-21T15:17:37.278Z,100824.32
2019-01-21T15:20:44.520Z,100822.86
2019-01-21T15:23:43.133Z,100818.00
2019-01-21T15:26:41.848Z,100812.61
2019-01-21T15:29:45.848Z,100803.70
2019-01-21T15:32:44.026Z,100798.36
2019-01-21T15:35:58.133Z,100799.80
2019-01-21T15:39:17.078Z,100796.06
2019-01-21T15:42:15.998Z,100793.23
2019-01-21T15:45:13.406Z,100802.45
2019-01-21T15:48:23.934Z,100806.46
2019-01-21T15:51:04.994Z,100801.31
2019-01-21T15:54:11.688Z,100795.46
2019-01-21T15:57:24.356Z,100793.95
2019-01-21T16:00:40.367Z,100792.42
2019-01-21T16:03:51.345Z,100800.29
2019-01-21T16:06:52.674Z,100796.98
2019-01-21T16:10:27.851Z,100794.48
2019-01-21T16:13:33.267Z,100797.11
2019-01-21T16:16:52.474Z,100799.30
2019-01-21T16:19:57.344Z,100804.93
2019-01-21T16:23:16.914Z,100808.49
2019-01-21T16:26:13.657Z,100806.87
2019-01-21T16:29:09.587Z,100800.02
2019-01-21T16:31:48.694Z,100799.66
2019-01-21T16:35:12.150Z,100798.41
2019-01-21T16:38:09.341Z,100796.30
2019-01-21T16:41:34.627Z,100793.78
2019-01-21T16:44:05.129Z,100797.66
2019-01-21T16:46:40.052Z,100790.04
2019-01-21T16:49:13.007Z,100784.95
2019-01-21T16:51:43.474Z,100791.84
2019-01-21T16:54:13.783Z,100789.29
2019-01-21T16:56:44.132Z,100790.17
2019-01-21T16:59:16.760Z,100783.70
2019-01-21T17:01:50.468Z,100789.34
2019-01-21T17:04:20.775Z,100781.64
2019-01-21T17:06:51.204Z,100788.50
2019-01-21T17:09:24.397Z,100792.80
2019-01-21T17:11:55.654Z,100790.59
2019-01-21T17:14:25.889Z,100788.49
2019-01-21T17:17:03.016Z,100779.95
2019-01-21T17:19:27.895Z,100776.06
2019-01-21T17:22:01.129Z,100773.55
2019-01-21T17:24:31.537Z,100784.28
2019-01-21T17:27:01.849Z,100790.30
2019-01-21T17:29:35.419Z,100791.98
2019-01-21T17:32:08.121Z,100782.56
2019-01-21T17:34:38.299Z,100778.27
2019-01-21T17:37:09.132Z,100768.46
2019-01-21T17:39:39.492Z,100777.55
2019-01-21T17:42:13.935Z,100771.52
2019-01-21T17:44:44.462Z,100772.83
2019-01-21T17:47:14.729Z,100768.13
2019-01-21T17:49:47.065Z,100762.63
2019-01-21T17:52:17.396Z,100757.91
2019-01-21T17:54:47.569Z,100752.32
2019-01-21T17:57:17.992Z,100754.08
2019-01-21T17:59:48.279Z,100752.01
2019-01-21T18:02:19.592Z,100752.91
2019-01-21T18:04:50.223Z,100752.11
2019-01-21T18:07:22.370Z,100749.14
2019-01-21T18:09:53.033Z,100738.87
2019-01-21T18:12:25.019Z,100742.73
2019-01-21T18:14:55.541Z,100744.92
2019-01-21T18:17:25.645Z,100748.78
2019-01-21T18:19:55.778Z,100749.22
2019-01-21T18:22:26.590Z,100749.22
2019-01-21T18:24:56.881Z,100746.64
2019-01-21T18:27:27.878Z,100726.45
2019-01-21T18:30:02.080Z,100736.73
2019-01-21T18:32:40.324Z,100739.71
2019-01-21T18:35:12.485Z,100738.44
2019-01-21T18:37:43.214Z,100741.47
2019-01-21T18:40:29.647Z,100744.02
2019-01-21T18:43:00.191Z,100743.14
2019-01-21T18:45:30.823Z,100745.29
2019-01-21T18:48:01.099Z,100748.70
2019-01-21T18:50:31.064Z,100744.84
2019-01-21T18:53:01.233Z,100747.91
2019-01-21T18:55:31.677Z,100745.30
2019-01-21T18:58:01.754Z,100746.16
2019-01-21T19:00:32.080Z,100750.38
2019-01-21T19:03:02.049Z,100753.41
2019-01-21T19:05:32.315Z,100752.09
2019-01-21T19:08:02.545Z,100755.09
2019-01-21T19:10:33.044Z,100756.33
2019-01-21T19:13:06.534Z,100754.63
2019-01-21T19:15:36.812Z,100753.41
2019-01-21T19:18:07.817Z,100753.05
2019-01-21T19:20:37.672Z,100758.20
2019-01-21T19:23:07.811Z,100759.92
2019-01-21T19:25:38.013Z,100750.09
2019-01-21T19:28:13.701Z,100751.34
2019-01-21T19:30:43.325Z,100749.52
2019-01-21T19:33:13.166Z,100752.89
2019-01-21T19:35:45.812Z,100751.98
2019-01-21T19:38:16.114Z,100740.80
2019-01-21T19:40:48.926Z,100744.63
2019-01-21T19:43:23.623Z,100750.14
2019-01-21T19:46:02.834Z,100747.55
2019-01-21T19:48:32.240Z,100739.36
2019-01-21T19:51:03.630Z,100733.74
2019-01-21T19:53:34.844Z,100736.72
2019-01-21T19:56:04.271Z,100740.55
2019-01-21T19:58:44.003Z,100741.42
2019-01-21T20:01:16.364Z,100733.28
2019-01-21T20:03:46.893Z,100730.23
2019-01-21T20:06:17.224Z,100723.36
2019-01-21T20:08:48.028Z,100726.02
2019-01-21T20:11:21.662Z,100719.25
2019-01-21T20:13:52.669Z,100718.87
2019-01-21T20:16:27.261Z,100716.77
2019-01-21T20:18:57.442Z,100711.22
2019-01-21T20:21:29.019Z,100709.49
2019-01-21T20:23:59.021Z,100699.62
2019-01-21T20:26:28.805Z,100702.19
2019-01-21T20:28:58.997Z,100700.50
2019-01-21T20:31:40.836Z,100691.92
2019-01-21T20:34:15.294Z,100695.77
2019-01-21T20:36:46.855Z,100685.91
2019-01-21T20:39:40.488Z,100689.40
2019-01-21T20:42:10.915Z,100688.52
2019-01-21T20:44:43.307Z,100696.29
2019-01-21T20:47:13.370Z,100695.38
2019-01-21T20:49:43.608Z,100690.23
2019-01-21T20:52:17.735Z,100697.95
2019-01-21T20:54:47.792Z,100706.97
2019-01-21T20:57:23.040Z,100699.62
2019-01-21T21:00:09.113Z,100692.73
2019-01-21T21:02:49.954Z,100690.60
2019-01-21T21:05:24.138Z,100682.91
2019-01-21T21:08:11.011Z,100684.27
2019-01-21T21:10:44.932Z,100677.00
2019-01-21T21:13:19.879Z,100673.12
2019-01-21T21:15:50.882Z,100677.39
2019-01-21T21:18:25.627Z,100675.66
2019-01-21T21:21:04.345Z,100678.66
2019-01-21T21:23:46.570Z,100671.39
2019-01-21T21:26:17.070Z,100669.25
2019-01-21T21:31:20.573Z,100670.47
2019-01-21T21:33:51.441Z,100667.90
2019-01-21T21:36:30.828Z,100663.19
2019-01-21T21:39:01.740Z,100668.34
2019-01-21T21:41:32.140Z,100664.03
2019-01-21T21:44:02.465Z,100658.03
2019-01-21T21:46:33.433Z,100652.04
2019-01-21T21:49:09.391Z,100656.77
2019-01-21T21:52:27.631Z,100655.04
2019-01-21T21:55:02.389Z,100655.53
2019-01-21T21:57:33.851Z,100659.43
2019-01-21T22:00:06.122Z,100660.78
2019-01-21T22:02:36.435Z,100658.61
2019-01-21T22:05:08.630Z,100659.09
2019-01-21T22:07:38.689Z,100651.45
2019-01-21T22:10:11.709Z,100654.13
2019-01-21T22:12:42.450Z,100647.75
2019-01-21T22:15:20.782Z,100646.05
2019-01-21T22:17:51.570Z,100649.99
2019-01-21T22:20:23.533Z,100649.99
2019-01-21T22:23:01.920Z,100648.33
2019-01-21T22:25:32.526Z,100639.76
2019-01-21T22:28:11.814Z,100635.03
2019-01-21T22:30:42.172Z,100640.63
2019-01-21T22:33:12.146Z,100630.77
2019-01-21T22:35:42.083Z,100635.89
2019-01-21T22:38:12.712Z,100632.02
2019-01-21T22:40:41.970Z,100639.70
2019-01-21T22:43:16.164Z,100630.27
2019-01-21T22:45:46.846Z,100623.83
2019-01-21T22:48:17.844Z,100628.10
2019-01-21T22:50:47.966Z,100628.10
2019-01-21T22:53:17.859Z,100636.67
2019-01-21T22:55:48.094Z,100631.51
2019-01-21T22:58:18.563Z,100621.64
2019-01-21T23:01:12.698Z,100617.78
2019-01-21T23:03:42.974Z,100614.80
2019-01-21T23:06:13.292Z,100613.97
2019-01-21T23:08:44.693Z,100616.09
2019-01-21T23:11:15.313Z,100616.09
2019-01-21T23:13:48.199Z,100616.08
2019-01-21T23:16:19.008Z,100614.80
2019-01-21T23:18:49.625Z,100613.10
2019-01-21T23:21:24.911Z,100607.95
2019-01-21T23:23:55.522Z,100608.34
2019-01-21T23:26:28.315Z,100605.35
2019-01-21T23:28:58.907Z,100604.13
2019-01-21T23:31:29.094Z,100604.13
2019-01-21T23:34:07.233Z,100605.81
2019-01-21T23:36:37.693Z,100597.22
2019-01-21T23:39:10.918Z,100603.67
2019-01-21T23:41:40.989Z,100601.95
2019-01-21T23:44:11.765Z,100599.80
2019-01-21T23:46:42.555Z,100589.52
2019-01-21T23:49:13.208Z,100593.37
2019-01-21T23:51:43.197Z,100589.52
2019-01-21T23:54:14.124Z,100583.64
2019-01-21T23:56:46.164Z,100583.64
2019-01-21T23:59:34.037Z,100584.56
